Time;durP1;ratioP1;P1;durP2;ratioP2;P2;SDS_P1;SDS_P2;PMS_P1;PMS_P2;Temp;Humidity;BMP_temperature;BMP_pressure;BME280_temperature;BME280_humidity;BME280_pressure;Samples;Min_cycle;Max_cycle;Signal;HPM_P1;HPM_P2
2022/03/30 00:14:55;;;;;;;107.90;51.40;;;;;;;4.75;66.20;97603.39;432474;1270;99302;-41
2022/03/30 00:25:01;;;;;;;103.30;45.60;;;;;;;4.63;66.26;97604.27;432354;1270;108702;-46
2022/03/30 00:35:08;;;;;;;92.80;46.00;;;;;;;4.56;66.46;97599.48;432428;1270;99273;-43
2022/03/30 00:45:16;;;;;;;56.10;31.90;;;;;;;4.54;66.60;97590.66;432534;1270;112473;-42
2022/03/30 00:55:24;;;;;;;64.50;31.70;;;;;;;4.69;66.60;97580.73;432450;1271;107634;-42
2022/03/30 01:05:31;;;;;;;69.10;36.00;;;;;;;4.74;66.75;97573.39;433259;1261;98023;-42
2022/03/30 01:15:39;;;;;;;72.40;35.40;;;;;;;4.72;66.97;97567.41;432223;1271;108902;-44
2022/03/30 01:25:47;;;;;;;70.80;35.70;;;;;;;4.70;66.99;97559.33;433368;1271;99369;-43
2022/03/30 01:35:55;;;;;;;65.70;34.00;;;;;;;4.61;67.28;97550.23;433185;1270;112608;-43
2022/03/30 01:46:02;;;;;;;68.20;36.30;;;;;;;4.69;67.30;97541.20;433022;1271;109006;-42
2022/03/30 01:56:09;;;;;;;54.50;27.80;;;;;;;4.84;67.36;97539.06;433054;1270;99825;-42
2022/03/30 02:06:22;;;;;;;50.40;27.30;;;;;;;4.94;67.29;97528.21;432934;1270;109011;-42
2022/03/30 02:26:36;;;;;;;95.50;38.30;;;;;;;4.90;67.53;97507.88;432424;1271;113172;-40
2022/03/30 02:56:58;;;;;;;61.80;31.70;;;;;;;4.59;67.59;97494.64;432443;1271;111030;-42
2022/03/30 03:07:07;;;;;;;60.90;32.10;;;;;;;4.68;67.87;97495.05;432292;1271;107223;-43
2022/03/30 03:17:14;;;;;;;77.60;36.90;;;;;;;4.78;67.89;97495.36;432542;1271;99293;-42
2022/03/30 03:27:21;;;;;;;77.70;36.40;;;;;;;4.66;68.01;97492.45;432330;1270;108896;-42
2022/03/30 03:37:28;;;;;;;77.40;37.30;;;;;;;4.50;68.22;97490.39;432493;1270;99259;-43
2022/03/30 03:47:36;;;;;;;77.70;39.30;;;;;;;4.37;68.20;97486.09;432632;1271;112446;-43
2022/03/30 03:57:43;;;;;;;84.20;40.20;;;;;;;4.27;68.40;97482.98;432353;1271;108877;-41
2022/03/30 04:07:51;;;;;;;64.70;34.30;;;;;;;4.14;68.14;97478.40;432602;1270;99242;-45
2022/03/30 04:17:58;;;;;;;56.10;32.00;;;;;;;4.15;68.36;97476.14;432636;1269;108747;-42
2022/03/30 04:28:05;;;;;;;73.50;37.20;;;;;;;4.23;68.48;97481.44;432556;1269;99255;-42
2022/03/30 04:38:11;;;;;;;76.90;38.70;;;;;;;4.17;68.40;97483.05;432645;1271;111443;-43
2022/03/30 04:48:18;;;;;;;86.70;37.70;;;;;;;3.98;68.52;97493.67;432564;1269;108943;-41
2022/03/30 04:58:25;;;;;;;85.90;40.70;;;;;;;3.89;68.70;97493.65;432888;1271;98048;-41
2022/03/30 05:08:33;;;;;;;76.40;40.40;;;;;;;3.87;68.70;97491.20;432760;1270;109408;-41
2022/03/30 05:18:40;;;;;;;69.30;35.90;;;;;;;3.94;68.58;97487.64;432559;1271;98033;-42
2022/03/30 05:28:46;;;;;;;61.20;30.50;;;;;;;4.16;68.61;97486.88;432498;1270;112458;-40
2022/03/30 05:38:54;;;;;;;77.40;40.50;;;;;;;4.49;68.84;97487.90;432613;1271;108919;-41
2022/03/30 05:49:01;;;;;;;88.90;42.70;;;;;;;5.01;68.83;97486.17;432762;1269;99804;-44
2022/03/30 05:59:08;;;;;;;81.30;41.30;;;;;;;5.75;68.64;97487.35;432807;1269;111178;-42
2022/03/30 06:09:16;;;;;;;78.70;41.60;;;;;;;6.51;68.14;97492.97;432661;1271;108952;-42
2022/03/30 06:19:24;;;;;;;80.30;42.50;;;;;;;7.14;67.48;97486.95;432591;1269;99286;-42
2022/03/30 06:29:32;;;;;;;73.00;38.30;;;;;;;7.80;67.06;97491.11;432529;1270;112155;-41
2022/03/30 06:39:39;;;;;;;65.40;38.30;;;;;;;8.45;66.38;97486.98;432582;1270;108891;-42
2022/03/30 06:49:48;;;;;;;67.60;36.50;;;;;;;8.83;65.88;97488.51;432758;1270;99274;-41
2022/03/30 06:59:56;;;;;;;68.60;38.10;;;;;;;9.68;65.21;97489.56;432627;1270;113066;-40
2022/03/30 07:50:53;;;;;;;54.30;32.90;;;;;;;12.07;59.94;97492.38;433065;1270;98853;-41
2022/03/30 08:01:07;;;;;;;51.30;29.90;;;;;;;12.19;59.42;97486.27;433032;1271;108714;-43
2022/03/30 08:31:47;;;;;;;35.50;20.70;;;;;;;12.12;56.29;97470.60;433052;1270;108006;-42
2022/03/30 08:41:55;;;;;;;27.70;18.40;;;;;;;11.90;55.16;97468.23;432985;1269;99261;-42
2022/03/30 08:52:04;;;;;;;31.90;18.10;;;;;;;11.88;54.41;97469.60;432845;1270;108826;-42
2022/03/30 09:02:12;;;;;;;28.00;16.10;;;;;;;12.02;54.55;97450.47;433087;1269;99282;-45
2022/03/30 09:12:28;;;;;;;34.10;21.10;;;;;;;12.49;53.17;97436.20;432662;1270;465661;-42
2022/03/30 09:22:34;;;;;;;44.30;19.00;;;;;;;12.12;52.27;97434.39;433043;1270;108868;-42
2022/03/30 09:42:48;;;;;;;28.00;16.50;;;;;;;11.23;51.50;97428.95;433015;1270;108853;-42
2022/03/30 09:53:09;;;;;;;35.50;19.00;;;;;;;11.29;51.98;97416.55;432816;1270;98024;-41
2022/03/30 10:03:17;;;;;;;28.30;15.90;;;;;;;11.39;51.09;97414.67;432947;1269;112365;-43
2022/03/30 10:13:25;;;;;;;22.40;14.40;;;;;;;11.29;50.68;97413.77;433008;1270;108732;-42
2022/03/30 10:23:31;;;;;;;30.20;14.70;;;;;;;11.28;50.71;97410.06;433002;1270;99347;-41
2022/03/30 10:33:44;;;;;;;28.30;14.00;;;;;;;11.40;50.54;97404.25;433090;1269;107834;-42
2022/03/30 10:43:51;;;;;;;24.70;12.20;;;;;;;11.41;49.95;97396.66;433124;1268;99257;-43
2022/03/30 10:54:30;;;;;;;21.00;13.90;;;;;;;12.00;49.62;97376.88;432983;1270;111884;-43
2022/03/30 11:04:37;;;;;;;23.50;12.40;;;;;;;12.21;48.10;97367.11;433188;1269;109028;-44
2022/03/30 11:15:00;;;;;;;32.10;14.70;;;;;;;12.09;47.39;97360.75;433235;1270;99248;-42
2022/03/30 11:35:20;;;;;;;23.10;12.50;;;;;;;11.86;46.90;97348.64;432870;1270;99257;-42
2022/03/30 11:45:29;;;;;;;24.40;13.50;;;;;;;11.75;46.71;97346.30;433113;1270;112432;-43
2022/03/30 11:55:39;;;;;;;28.50;13.20;;;;;;;11.71;46.92;97342.91;432666;1270;108730;-41
2022/03/30 12:16:06;;;;;;;22.60;14.10;;;;;;;11.86;46.48;97327.27;433132;1270;112668;-42
2022/03/30 12:26:17;;;;;;;26.80;14.70;;;;;;;11.90;46.47;97320.80;433074;1269;108850;-41
2022/03/30 12:36:24;;;;;;;28.70;16.20;;;;;;;11.82;46.49;97310.92;433147;1270;98853;-44
2022/03/30 12:46:33;;;;;;;29.00;15.80;;;;;;;11.55;46.16;97293.85;432591;1271;108315;-41
2022/03/30 12:56:47;;;;;;;26.40;14.60;;;;;;;11.38;46.37;97283.41;432436;1272;98903;-42
2022/03/30 13:07:10;;;;;;;25.40;14.80;;;;;;;11.39;46.31;97274.77;433414;1269;111440;-42
2022/03/30 13:17:17;;;;;;;28.50;17.10;;;;;;;11.32;46.54;97271.86;433182;1269;108794;-41
2022/03/30 13:47:36;;;;;;;26.60;15.90;;;;;;;11.30;46.69;97251.66;433002;1270;99283;-41
2022/03/30 13:57:43;;;;;;;27.80;17.20;;;;;;;11.27;46.90;97236.95;433097;1269;112359;-42
2022/03/30 14:07:51;;;;;;;32.90;18.40;;;;;;;10.85;46.60;97239.84;433096;1270;108841;-44
2022/03/30 14:17:57;;;;;;;39.80;20.50;;;;;;;10.46;47.50;97242.52;432967;1270;99272;-41
2022/03/30 14:28:10;;;;;;;34.80;19.90;;;;;;;10.32;48.14;97225.00;433209;1270;108565;-42
2022/03/30 14:38:17;;;;;;;43.40;24.20;;;;;;;10.21;48.51;97221.64;432988;1270;99279;-43
2022/03/30 14:58:31;;;;;;;31.60;20.00;;;;;;;9.86;49.41;97211.02;432910;1270;108733;-44
2022/03/30 15:08:38;;;;;;;36.40;21.30;;;;;;;9.71;49.59;97212.92;432512;1271;99267;-42
2022/03/30 15:18:46;;;;;;;29.90;18.70;;;;;;;9.63;50.36;97210.78;432907;1270;109693;-44
2022/03/30 15:28:53;;;;;;;69.70;37.20;;;;;;;9.46;50.91;97207.17;432941;1269;100363;-42
2022/03/30 15:39:01;;;;;;;45.00;25.40;;;;;;;9.21;51.92;97205.83;432853;1270;112522;-41
2022/03/30 15:49:08;;;;;;;34.50;22.90;;;;;;;8.89;52.69;97197.88;432328;1271;109285;-42
2022/03/30 15:59:14;;;;;;;38.00;24.60;;;;;;;8.72;53.62;97194.02;432933;1269;99288;-42
2022/03/30 16:09:20;;;;;;;39.80;25.50;;;;;;;8.61;54.31;97193.25;433002;1269;112040;-43
2022/03/30 16:19:28;;;;;;;42.00;26.80;;;;;;;8.42;55.02;97192.56;432966;1270;108388;-42
2022/03/30 16:29:35;;;;;;;58.60;33.70;;;;;;;8.30;55.70;97190.16;432949;1270;98058;-45
2022/03/30 16:39:42;;;;;;;77.50;43.40;;;;;;;8.17;56.27;97191.10;432871;1270;112361;-42
2022/03/30 16:49:50;;;;;;;55.10;33.80;;;;;;;8.05;57.36;97190.34;432953;1270;108915;-41
2022/03/30 16:59:57;;;;;;;62.90;38.10;;;;;;;7.77;57.96;97182.58;433090;1270;99357;-43
2022/03/30 17:10:04;;;;;;;52.90;31.40;;;;;;;7.37;58.60;97180.11;432865;1269;108966;-42
2022/03/30 17:20:12;;;;;;;55.50;28.00;;;;;;;7.11;59.57;97172.73;432874;1270;99205;-41
2022/03/30 17:30:23;;;;;;;43.20;28.60;;;;;;;7.08;60.43;97173.69;432939;1270;112452;-41
2022/03/30 17:40:32;;;;;;;49.20;31.30;;;;;;;7.04;61.19;97174.05;433041;1269;107862;-42
2022/03/30 18:11:17;;;;;;;52.50;30.40;;;;;;;6.59;62.82;97166.98;433136;1269;99287;-44
2022/03/30 18:31:32;;;;;;;72.50;44.20;;;;;;;6.30;64.23;97161.27;433101;1269;108792;-41
2022/03/30 18:41:40;;;;;;;63.40;39.10;;;;;;;6.13;64.80;97165.20;432943;1270;99088;-41
2022/03/30 19:01:54;;;;;;;46.40;26.40;;;;;;;5.96;66.19;97169.74;433185;1269;98956;-42
2022/03/30 19:22:08;;;;;;;37.30;21.60;;;;;;;5.57;68.95;97165.58;432879;1271;108930;-42
2022/03/30 19:42:22;;;;;;;35.50;21.70;;;;;;;5.39;70.30;97163.18;432960;1269;109069;-43
2022/03/30 19:52:29;;;;;;;50.40;25.70;;;;;;;5.30;71.20;97160.11;432934;1270;98879;-41
2022/03/30 20:02:37;;;;;;;46.50;25.90;;;;;;;5.12;72.00;97164.67;433189;1270;111840;-42
2022/03/30 20:12:43;;;;;;;22.90;13.30;;;;;;;4.99;72.47;97162.19;433064;1270;108921;-46
2022/03/30 20:22:50;;;;;;;30.60;16.70;;;;;;;4.65;74.38;97166.85;433194;1270;98921;-42
2022/03/30 20:43:04;;;;;;;26.10;14.90;;;;;;;4.21;75.45;97175.69;433041;1270;99266;-41
2022/03/30 20:53:11;;;;;;;23.20;15.40;;;;;;;4.12;76.06;97180.89;433099;1270;112287;-43
2022/03/30 21:13:21;;;;;;;19.70;12.50;;;;;;;3.78;77.82;97176.02;428552;1271;5370007;-40
2022/03/30 21:23:28;;;;;;;21.50;14.10;;;;;;;3.59;78.54;97172.52;432374;1271;107285;-40
2022/03/30 21:33:35;;;;;;;14.80;11.20;;;;;;;3.36;79.31;97174.21;432361;1271;97964;-41
2022/03/30 21:43:41;;;;;;;14.60;9.50;;;;;;;3.22;79.46;97178.06;432326;1271;112427;-41
2022/03/30 21:53:48;;;;;;;14.30;9.70;;;;;;;3.03;80.32;97181.35;432428;1271;109639;-40
2022/03/30 22:03:55;;;;;;;14.70;9.30;;;;;;;2.89;80.83;97178.70;432572;1271;98157;-41
2022/03/30 22:14:03;;;;;;;11.30;8.50;;;;;;;2.75;80.47;97168.14;432639;1271;108835;-46
2022/03/30 22:24:08;;;;;;;12.10;9.00;;;;;;;2.60;80.90;97162.62;432442;1271;98885;-43
2022/03/30 22:44:41;;;;;;;14.50;10.60;;;;;;;2.42;81.57;97155.15;432438;1271;109118;-41
2022/03/30 22:54:48;;;;;;;12.10;10.50;;;;;;;2.28;81.87;97155.45;432314;1271;99318;-44
2022/03/30 23:08:11;;;;;;;13.00;10.30;;;;;;;2.12;82.03;97147.16;432473;1271;108932;-42
2022/03/30 23:15:22;;;;;;;22.00;15.00;;;;;;;1.96;82.17;97136.96;432716;1271;99368;-42
2022/03/30 23:25:28;;;;;;;12.00;10.60;;;;;;;1.79;82.19;97130.17;432449;1271;112158;-40
2022/03/30 23:35:37;;;;;;;12.00;9.70;;;;;;;1.63;82.45;97124.98;432490;1271;109791;-41
2022/03/30 23:45:44;;;;;;;13.50;9.30;;;;;;;1.47;82.20;97120.74;432453;1271;99313;-43
2022/03/30 23:55:51;;;;;;;13.90;11.70;;;;;;;1.25;82.11;97118.84;432614;1271;108812;-42
